createdAt,value
2023-12-04T00:01:23.828Z,97562.31
2023-12-04T00:06:26.646Z,97556.66
2023-12-04T00:11:29.759Z,97556.22
2023-12-04T00:16:38.901Z,97559.16
2023-12-04T00:21:40.798Z,97545.81
2023-12-04T00:26:42.582Z,97536.13
2023-12-04T00:31:44.564Z,97520.06
2023-12-04T00:36:46.583Z,97530.88
2023-12-04T00:41:48.336Z,97526.88
2023-12-04T00:46:50.297Z,97519.91
2023-12-04T00:51:52.088Z,97515.19
2023-12-04T00:56:53.814Z,97512.78
2023-12-04T01:01:55.625Z,97514.47
2023-12-04T01:06:57.392Z,97515.06
2023-12-04T01:11:59.237Z,97506.69
2023-12-04T01:17:01.746Z,97501.50
2023-12-04T01:22:03.832Z,97482.91
2023-12-04T01:27:05.604Z,97483.31
2023-12-04T01:32:07.543Z,97489.09
2023-12-04T01:37:10.362Z,97484.91
2023-12-04T01:42:12.846Z,97471.47
2023-12-04T01:47:14.702Z,97445.72
2023-12-04T01:52:17.626Z,97438.06
2023-12-04T01:57:20.350Z,97446.00
2023-12-04T02:02:22.253Z,97434.91
2023-12-04T02:07:24.496Z,97417.44
2023-12-04T02:12:26.744Z,97424.22
2023-12-04T02:17:29.896Z,97418.56
2023-12-04T02:22:32.132Z,97414.28
2023-12-04T02:27:38.500Z,97408.97
2023-12-04T02:32:46.696Z,97415.66
2023-12-04T02:37:49.767Z,97403.69
2023-12-04T02:42:51.979Z,97400.91
2023-12-04T02:47:53.979Z,97394.88
2023-12-04T02:52:57.134Z,97383.81
2023-12-04T02:57:58.833Z,97387.47
2023-12-04T03:03:01.337Z,97369.16
2023-12-04T03:08:03.345Z,97372.25
2023-12-04T03:13:05.119Z,97374.25
2023-12-04T03:18:12.781Z,97374.25
2023-12-04T03:23:14.929Z,97357.25
2023-12-04T03:28:16.999Z,97364.78
2023-12-04T03:33:18.833Z,97353.25
2023-12-04T03:38:20.627Z,97359.22
2023-12-04T03:43:22.824Z,97355.59
2023-12-04T03:48:25.073Z,97349.50
2023-12-04T03:53:30.067Z,97353.66
2023-12-04T03:58:33.137Z,97328.28
2023-12-04T04:03:35.113Z,97318.50
2023-12-04T04:08:37.117Z,97311.78
2023-12-04T04:13:39.488Z,97300.81
2023-12-04T04:18:41.300Z,97290.59
2023-12-04T04:23:43.082Z,97285.59
2023-12-04T04:28:45.028Z,97284.00
2023-12-04T04:33:46.929Z,97291.88
2023-12-04T04:38:48.727Z,97288.00
2023-12-04T04:43:50.462Z,97290.66
2023-12-04T04:48:52.474Z,97285.34
2023-12-04T04:53:54.293Z,97287.56
2023-12-04T04:58:57.339Z,97278.13
2023-12-04T05:03:59.175Z,97269.63
2023-12-04T05:09:00.943Z,97272.56
2023-12-04T05:14:02.826Z,97270.28
2023-12-04T05:19:04.585Z,97269.53
2023-12-04T05:24:06.807Z,97249.91
2023-12-04T05:29:08.858Z,97244.81
2023-12-04T05:34:10.864Z,97230.53
2023-12-04T05:39:13.676Z,97238.03
2023-12-04T05:44:15.405Z,97239.81
2023-12-04T05:49:17.521Z,97230.28
2023-12-04T05:54:19.469Z,97240.69
2023-12-04T05:59:21.579Z,97242.91
2023-12-04T06:04:23.419Z,97255.22
2023-12-04T06:09:25.305Z,97248.63
2023-12-04T06:14:27.762Z,97237.31
2023-12-04T06:19:30.325Z,97228.47
2023-12-04T06:24:32.468Z,97217.41
2023-12-04T06:29:34.637Z,97215.56
2023-12-04T06:34:37.050Z,97198.97
2023-12-04T06:39:40.117Z,97187.84
2023-12-04T06:44:42.611Z,97175.69
2023-12-04T06:49:45.047Z,97177.13
2023-12-04T06:54:47.074Z,97183.22
2023-12-04T06:59:49.048Z,97186.69
2023-12-04T07:04:50.951Z,97182.84
2023-12-04T07:09:55.754Z,97181.56
2023-12-04T07:14:57.652Z,97156.91
2023-12-04T07:19:59.413Z,97142.19
2023-12-04T07:25:01.462Z,97144.06
2023-12-04T07:30:04.416Z,97139.91
2023-12-04T07:35:07.384Z,97141.00
2023-12-04T07:40:10.825Z,97130.03
2023-12-04T07:45:12.641Z,97127.59
2023-12-04T07:50:14.695Z,97117.13
2023-12-04T07:55:16.428Z,97100.69
2023-12-04T08:00:23.752Z,97096.97
2023-12-04T08:05:25.499Z,97084.75
2023-12-04T08:10:28.015Z,97091.28
2023-12-04T08:15:29.833Z,97110.56
2023-12-04T08:20:36.944Z,97107.44
2023-12-04T08:25:43.283Z,97116.13
2023-12-04T08:30:45.094Z,97115.84
2023-12-04T08:35:47.217Z,97118.34
2023-12-04T08:40:49.028Z,97104.88
2023-12-04T08:45:50.941Z,97108.84
2023-12-04T08:50:52.738Z,97089.25
2023-12-04T08:55:54.495Z,97078.97
2023-12-04T09:00:56.266Z,97084.94
2023-12-04T09:05:58.934Z,97087.63
2023-12-04T09:11:11.090Z,97092.25
2023-12-04T09:16:22.566Z,97083.69
2023-12-04T09:21:24.300Z,97077.84
2023-12-04T09:26:26.241Z,97072.50
2023-12-04T09:31:28.116Z,97077.44
2023-12-04T09:36:30.651Z,97067.19
2023-12-04T09:41:34.049Z,97054.81
2023-12-04T09:46:36.534Z,97049.56
2023-12-04T09:51:39.175Z,97049.00
2023-12-04T09:56:41.808Z,97055.69
2023-12-04T10:01:44.308Z,97040.59
2023-12-04T10:06:46.941Z,97034.00
2023-12-04T10:11:51.700Z,97017.50
2023-12-04T10:16:56.676Z,97020.72
2023-12-04T10:22:00.814Z,96998.28
2023-12-04T10:27:10.152Z,97000.56
2023-12-04T10:32:12.964Z,96994.13
2023-12-04T10:37:15.839Z,96972.50
2023-12-04T10:42:28.535Z,96954.22
2023-12-04T10:47:34.661Z,96942.44
2023-12-04T10:52:41.634Z,96930.72
2023-12-04T10:57:44.629Z,96914.97
2023-12-04T11:02:49.578Z,96914.69
2023-12-04T11:08:14.338Z,96907.88
2023-12-04T11:13:24.065Z,96898.66
2023-12-04T11:18:29.564Z,96900.88
2023-12-04T11:23:33.331Z,96898.81
2023-12-04T11:28:37.525Z,96887.03
2023-12-04T11:33:39.725Z,96875.88
2023-12-04T11:38:49.677Z,96869.50
2023-12-04T11:43:52.755Z,96871.00
2023-12-04T11:48:56.936Z,96882.13
2023-12-04T11:53:59.206Z,96884.72
2023-12-04T11:59:08.357Z,96876.97
2023-12-04T12:04:11.505Z,96876.03
2023-12-04T12:09:13.847Z,96853.28
2023-12-04T12:14:16.134Z,96843.00
2023-12-04T12:19:20.602Z,96838.44
2023-12-04T12:24:24.763Z,96839.78
2023-12-04T12:29:28.401Z,96844.75
2023-12-04T12:34:30.427Z,96839.00
2023-12-04T12:39:34.103Z,96843.38
2023-12-04T12:44:41.561Z,96839.84
2023-12-04T12:49:44.601Z,96823.47
2023-12-04T12:54:46.635Z,96820.44
2023-12-04T12:59:48.832Z,96829.47
2023-12-04T13:04:51.919Z,96820.66
2023-12-04T13:09:54.417Z,96813.44
2023-12-04T13:14:56.529Z,96808.41
2023-12-04T13:19:58.396Z,96784.50
2023-12-04T13:25:00.627Z,96778.91
2023-12-04T13:30:02.834Z,96783.84
2023-12-04T13:35:06.382Z,96771.41
2023-12-04T13:40:09.532Z,96772.59
2023-12-04T13:45:11.375Z,96768.03
2023-12-04T13:50:13.575Z,96771.50
2023-12-04T13:55:20.869Z,96742.03
2023-12-04T14:00:22.665Z,96725.69
2023-12-04T14:05:24.787Z,96713.91
2023-12-04T14:10:28.033Z,96693.72
2023-12-04T14:15:31.074Z,96718.00
2023-12-04T14:20:32.982Z,96724.50
2023-12-04T14:25:35.114Z,96727.25
2023-12-04T14:30:40.463Z,96739.09
2023-12-04T14:35:44.754Z,96717.13
2023-12-04T14:40:46.646Z,96693.63
2023-12-04T14:45:48.988Z,96690.94
2023-12-04T14:50:51.959Z,96678.09
2023-12-04T14:56:12.787Z,96671.84
2023-12-04T15:01:41.290Z,96647.06
2023-12-04T15:07:01.991Z,96681.84
2023-12-04T15:12:22.110Z,96674.22
2023-12-04T15:17:34.000Z,96679.81
2023-12-04T15:22:36.656Z,96666.44
2023-12-04T15:27:39.213Z,96699.34
2023-12-04T15:32:41.372Z,96687.31
2023-12-04T15:37:43.133Z,96694.31
2023-12-04T15:42:46.452Z,96661.84
2023-12-04T15:47:48.537Z,96670.06
2023-12-04T15:52:50.511Z,96688.75
2023-12-04T15:57:56.054Z,96683.66
2023-12-04T16:02:59.096Z,96669.50
2023-12-04T16:08:01.812Z,96647.84
2023-12-04T16:13:03.573Z,96634.84
2023-12-04T16:18:07.619Z,96640.66
2023-12-04T16:23:09.561Z,96645.63
2023-12-04T16:28:12.065Z,96633.72
2023-12-04T16:33:14.447Z,96626.91
2023-12-04T16:38:16.300Z,96643.84
2023-12-04T16:43:18.635Z,96626.34
2023-12-04T16:48:21.008Z,96615.88
2023-12-04T16:53:23.719Z,96615.66
2023-12-04T16:58:25.650Z,96604.72
2023-12-04T17:03:27.987Z,96598.97
2023-12-04T17:08:30.333Z,96598.19
2023-12-04T17:13:32.473Z,96586.25
2023-12-04T17:18:34.336Z,96588.75
2023-12-04T17:23:37.570Z,96585.47
2023-12-04T17:28:39.615Z,96566.09
2023-12-04T17:33:43.026Z,96578.38
2023-12-04T17:38:45.492Z,96578.56
2023-12-04T17:43:47.247Z,96580.84
2023-12-04T17:48:49.238Z,96568.44
2023-12-04T17:53:51.265Z,96556.31
2023-12-04T17:58:53.005Z,96535.13
2023-12-04T18:03:55.154Z,96524.81
2023-12-04T18:08:56.942Z,96520.28
2023-12-04T18:13:58.856Z,96543.34
2023-12-04T18:19:00.929Z,96537.19
2023-12-04T18:24:02.812Z,96546.66
2023-12-04T18:29:04.851Z,96552.06
2023-12-04T18:34:06.867Z,96559.09
2023-12-04T18:39:10.536Z,96557.44
2023-12-04T18:44:12.937Z,96554.53
2023-12-04T18:49:15.711Z,96563.28
2023-12-04T18:54:17.599Z,96553.19
2023-12-04T18:59:19.429Z,96546.41
2023-12-04T19:04:21.360Z,96548.88
2023-12-04T19:09:23.194Z,96542.75
2023-12-04T19:14:25.005Z,96546.66
2023-12-04T19:19:26.977Z,96552.47
2023-12-04T19:24:28.938Z,96561.47
2023-12-04T19:29:31.758Z,96536.28
2023-12-04T19:34:33.742Z,96539.75
2023-12-04T19:39:40.758Z,96523.91
2023-12-04T19:44:45.959Z,96526.00
2023-12-04T19:49:47.970Z,96509.94
2023-12-04T19:54:50.324Z,96514.19
2023-12-04T19:59:52.330Z,96492.09
2023-12-04T20:04:54.371Z,96496.88
2023-12-04T20:09:56.279Z,96489.28
2023-12-04T20:14:58.156Z,96488.97
2023-12-04T20:20:00.909Z,96492.69
2023-12-04T20:25:03.426Z,96485.72
2023-12-04T20:30:05.916Z,96481.16
2023-12-04T20:35:08.741Z,96477.88
2023-12-04T20:40:11.866Z,96476.44
2023-12-04T20:45:15.821Z,96470.31
2023-12-04T20:50:18.145Z,96466.00
2023-12-04T20:55:20.460Z,96462.69
2023-12-04T21:00:22.530Z,96474.03
2023-12-04T21:05:26.398Z,96471.34
2023-12-04T21:10:28.305Z,96458.19
2023-12-04T21:15:30.924Z,96452.00
2023-12-04T21:20:32.721Z,96450.97
2023-12-04T21:25:34.991Z,96443.13
2023-12-04T21:30:36.962Z,96434.13
2023-12-04T21:35:39.979Z,96417.69
2023-12-04T21:40:42.678Z,96380.25
2023-12-04T21:45:45.069Z,96339.75
2023-12-04T21:50:46.805Z,96336.88
2023-12-04T21:55:48.646Z,96326.22
2023-12-04T22:00:50.710Z,96312.66
2023-12-04T22:05:53.336Z,96336.53
2023-12-04T22:10:55.041Z,96350.31
2023-12-04T22:15:59.571Z,96377.91
2023-12-04T22:21:01.657Z,96377.28
2023-12-04T22:26:03.965Z,96366.22
2023-12-04T22:31:06.382Z,96359.19
2023-12-04T22:36:08.924Z,96346.84
2023-12-04T22:41:10.952Z,96348.50
2023-12-04T22:46:12.730Z,96341.09
2023-12-04T22:51:14.529Z,96308.16
2023-12-04T22:56:17.623Z,96312.88
2023-12-04T23:01:19.468Z,96313.09
2023-12-04T23:06:21.404Z,96310.22
2023-12-04T23:11:23.270Z,96296.44
2023-12-04T23:16:25.044Z,96293.94
2023-12-04T23:21:26.765Z,96327.50
2023-12-04T23:26:28.568Z,96321.31
2023-12-04T23:31:30.271Z,96313.03
2023-12-04T23:36:32.146Z,96292.03
2023-12-04T23:41:34.856Z,96299.22
2023-12-04T23:46:36.811Z,96300.47
2023-12-04T23:51:38.849Z,96335.72
2023-12-04T23:56:40.935Z,96350.56
